Observations for CARLISLE, United Kingdom (EGNC)

EGNC 181650Z 24018KT 9999 9000S VCSH FEW020 SCT024 16/13 Q1000  
EGNC 181620Z 24017KT 9999 VCSH FEW012 SCT020 17/13 Q1000
EGNC 181550Z 24022KT 9999 VCSH FEW012 SCT020 17/13 Q1000
EGNC 181520Z 25018KT 9999 VCSH FEW012 BKN020 16/13 Q1000
EGNC 181450Z 24018G29KT 9999 VCSH FEW012 BKN020 16/13 Q0999 
EGNC 181420Z 24015KT 200V270 9999 VCSH FEW012 BKN020 16/12 Q1000
EGNC 181350Z 24018KT 200V270 9999 VCSH FEW012 BKN020 15/12 Q1000
EGNC 181320Z 24027G40KT 210V270 9999 VCSH FEW012 BKN020 17/12 Q0999 
EGNC 181250Z 24027G38KT 9999 FEW008 SCT010 16/12 Q0998  
EGNC 181220Z 23021G35KT 200V260 9999 FEW007 BKN010 16/12 Q0998  
EGNC 181150Z 23014KT 9999 VCSH FEW007 BKN010 16/15 Q0997
EGNC 181120Z 23018KT 9999 VCSH FEW007 BKN010 16/15 Q0996
EGNC 181050Z 24018KT 2700 -SHRA BR BKN007 BKN012 16/16 Q0996
EGNC 181020Z 24016KT 2700 -SHRA BR BKN007 BKN012 16/16 Q0995
EGNC 180950Z 23016KT 2700 -SHRA BR BKN007 BKN012 16/16 Q0995
EGNC 180920Z 23008KT 8000 SCT007 BKN015 17/16 Q0994 
EGNC 180850Z 23005KT 4000 BR SCT007 BKN015 17/16 Q0993  
EGNC 180820Z 17004KT 110V220 9999 VCSH SCT007 BKN015 17/16 Q0993
EGNC 180750Z 18005KT 120V230 7000 VCSH SCT007 BKN015 16/15 Q0993